x

9441102 - Westport, Wa (wptw1) Weather Station

2:36 - Thu 23rd Feb 2017 All times are PST. -8 hours from GMT.

  • Wind
    6mph, 7mph gusts
  • Sea Temp 49°f
  • Ar Temp 36°f
  • Sea Pressure 1023.4mb
  • 9441102 - Westport, Wa
  • 9441102 - Westport, Wa

More Historic Weather Station data

Upgrade to MSW Pro to gain access to the past 30 days of data for over 8000 Wavebouys and Weather Stations around the globe.

Join Pro

Comparision Forecast

View Surf forecast
   
Qui 02/23 2:36 6 7 mph 1023.4mb 49f 36f
2:30 6 7 mph 1023.4mb 49f 35f
2:24 6 7 mph 1023.4mb 49f 36f
2:18 6 7 mph 1023.4mb 49f 35f
2:12 6 7 mph 1023.5mb 48f 35f
2:06 7
mph
1023.5mb 49f 35f
2:00 6 7 mph 1023.5mb 49f 36f
Qua 02/22 2:36 13 15 mph 1022.3mb 48f 41f
2:30 10 14 mph 1022.3mb 48f 42f
2:24 10 14 mph 1022.4mb 48f 42f
2:18 14 23 mph 1022.4mb 48f 43f
2:12 18 23 mph 1022.3mb 48f 44f
2:06 15 16 mph 1022.3mb 48f 44f
2:00 13 15 mph 1022.3mb 48f 44f
1:36 13 14 mph 1022.2mb 48f 44f
1:30 8 13 mph 1022.3mb 48f 43f
1:24 13 22 mph 1022.3mb 48f 42f
1:18 22 25 mph 1022.2mb 48f 42f
1:12 16 24 mph 1022.2mb 48f 43f
1:06 5 6 mph 1022.1mb 48f 42f
1:00 6 8 mph 1022.2mb 48f 42f
12:36 14 18 mph 1022.1mb 48f 42f
12:30 17 22 mph 1022.1mb 48f 42f
12:24 22 23 mph 1022mb 48f 43f
12:18 13 14 mph 1021.9mb 48f 44f
12:12 11 14 mph 1021.9mb 48f 44f
12:06 14 16 mph 1022mb 48f 43f
12:00 13 14 mph 1021.9mb 48f 44f
Ter 02/21 11:36 7 8 mph 1021.8mb 48f 43f
11:30 6 9 mph 1021.8mb 48f 42f
11:24 8 14 mph 1021.8mb 48f 41f
11:18 15 22 mph 1021.9mb 48f 41f
11:12 21 28 mph 1021.9mb 48f 41f
11:06 21 28 mph 1021.8mb 49f 42f
11:00 20 22 mph 1021.7mb 49f 42f
10:36 9 11 mph 1021.6mb 49f 44f
10:30 9 11 mph 1021.6mb 49f 44f
10:24 9 10 mph 1021.5mb 49f 44f
10:18 9 10 mph 1021.5mb 49f 43f
10:12 10 14 mph 1021.4mb 49f 43f
10:06 14 18 mph 1021.4mb 49f 43f
10:00 20 23 mph 1021.4mb 49f 44f
9:36 18 21 mph 1021.1mb 48f 44f
9:30 20 22 mph 1021mb 48f 44f
9:24 18 21 mph 1021mb 48f 45f
9:18 17 20 mph 1021mb 48f 45f
9:12 18 21 mph 1020.9mb 48f 44f
9:06 18 21 mph 1020.8mb 48f 44f
9:00 20 21 mph 1020.8mb 48f 44f
8:36 20 21 mph 1020.6mb 48f 45f
8:30 18 22 mph 1020.5mb 48f 45f
8:24 18 21 mph 1020.4mb 48f 45f
8:18 18 22 mph 1020.3mb 48f 45f
8:12 20 22 mph 1020.3mb 48f 45f
8:06 18 22 mph 1020.2mb 48f 45f
8:00 17 21 mph 1020.2mb 48f 45f
7:36 17 20 mph 1020.1mb 48f 45f
7:30 18 21 mph 1020.1mb 48f 45f
7:24 17 20 mph 1020.1mb 47f 45f
7:18 18 21 mph 1020mb 47f 45f
7:12 18 21 mph 1020mb 47f 45f
7:06 18 21 mph 1020mb 47f 45f
7:00 18 22 mph 1019.9mb 47f 45f
6:36 16 18 mph 1019.6mb 47f 45f
6:30 17 18 mph 1019.6mb 47f 45f
6:24 15 17 mph 1019.5mb 47f 45f
6:18 16 20 mph 1019.4mb 47f 45f
6:12 17 21 mph 1019.3mb 47f 45f
6:06 17 18 mph 1019.3mb 47f 45f
6:00 17 20 mph 1019.2mb 47f 45f
5:36 18 21 mph 1019mb 47f 45f
5:30 20 22 mph 1018.8mb 47f 45f
5:24 20 22 mph 1018.7mb 47f 45f
5:18 20 23 mph 1018.6mb 47f 46f
5:12 18 22 mph 1018.5mb 47f 46f
5:06 20 22 mph 1018.4mb 47f 46f
5:00 20 23 mph 1018.3mb 47f 46f
4:36 22 25 mph 1018.1mb 47f 46f
4:30 21 24 mph 1018mb 47f 46f
4:24 22 25 mph 1018mb 47f 46f
4:18 22 25 mph 1018mb 47f 46f
4:12 21 24 mph 1017.9mb 47f 46f
4:06 20 22 mph 1017.8mb 47f 46f
4:00 21 24 mph 1017.7mb 47f 46f
3:36 17 22 mph 1017.4mb 47f 46f
3:30 20 22 mph 1017.4mb 47f 46f
3:24 16 21 mph 1017.2mb 47f 46f
3:18 17 22 mph 1017.1mb 47f 46f
3:12 17 23 mph 1017mb 47f 46f
3:06 18 21 mph 1016.9mb 47f 46f
3:00 18 22 mph 1016.8mb 47f 46f
2:36 23 25 mph 1016.5mb 47f 46f
2:30 21 23 mph 1016.4mb 47f 47f
2:24 21 23 mph 1016.3mb 47f 47f
2:18 22 24 mph 1016.2mb 47f 46f
2:12 22 26 mph 1016.1mb 47f 46f
2:06 24 28 mph 1015.9mb 47f 47f
2:00 22 28 mph 1015.9mb 47f 46f
1:36 26 30 mph 1015.5mb 47f 46f
1:30 22 29 mph 1015.4mb 47f 46f
1:24 25 29 mph 1015.3mb 47f 46f
1:18 23 29 mph 1015.3mb 47f 46f
1:12 26 30 mph 1015.3mb 47f 46f
1:06 26 30 mph 1015.2mb 47f 46f
1:00 25 29 mph 1015.1mb 47f 46f
12:36 26 32 mph 1015mb 47f 46f
12:30 24 29 mph 1015mb 47f 46f
12:24 24 29 mph 1015mb 47f 46f
12:18 26 30 mph 1015mb 47f 46f
12:12 25 31 mph 1014.9mb 47f 46f
12:06 25 29 mph 1014.9mb 47f 46f
12:00 24 29 mph 1014.9mb 47f 46f
11:36 25 29 mph 1014.5mb 47f 46f
11:30 25 30 mph 1014.4mb 47f 46f
11:24 26 29 mph 1014.3mb 47f 46f
11:18 24 28 mph 1014.2mb 47f 46f
11:12 22 25 mph 1014.1mb 47f 46f
11:06 22 26 mph 1013.9mb 47f 46f
11:00 20 26 mph 1013.9mb 47f 46f
10:36 21 24 mph 1013.4mb 47f 45f
10:30 20 24 mph 1013.3mb 47f 45f
10:24 22 24 mph 1013.2mb 47f 45f
10:18 16 18 mph 1013mb 47f 46f
10:12 16 21 mph 1012.8mb 47f 45f
10:06 13 17 mph 1012.7mb 47f 45f
10:00 15 18 mph 1012.6mb 48f 46f
9:36 13 16 mph 1012mb 48f 45f
9:30 13 17 mph 1011.9mb 48f 46f
9:24 13 17 mph 1011.8mb 48f 46f
9:18 9 13 mph 1011.6mb 48f 46f
9:12 10 11 mph 1011.5mb 48f 46f
9:06 9 10 mph 1011.4mb 48f 45f
9:00 8 11 mph 1011.2mb 48f 45f
8:36 8 11 mph 1010.8mb 48f 43f
8:30 9 10 mph 1010.6mb 48f 43f
8:24 8 10 mph 1010.5mb 48f 43f
8:18 8 11 mph 1010.4mb 48f 43f
8:12 9 13 mph 1010.2mb 48f 43f
8:06 14 21 mph 1010mb 48f 44f
8:00 16 20 mph 1009.8mb 48f 44f
7:36 7 9 mph 1009.3mb 48f 43f
7:30 7 8 mph 1009.2mb 48f 43f
7:24 6 8 mph 1009mb 48f 42f
7:18 6
mph
1008.8mb 48f 42f
7:12 6 7 mph 1008.7mb 48f 42f
7:06 5 7 mph 1008.7mb 48f 42f
7:00 6 8 mph 1008.6mb 48f 42f
6:36 9 11 mph 1008.2mb 48f 42f
6:30 10 11 mph 1008.1mb 48f 42f
6:24 10 14 mph 1007.9mb 48f 42f
6:18 11 14 mph 1007.8mb 48f 42f
6:12 10 13 mph 1007.6mb 48f 42f
6:06 10 13 mph 1007.6mb 48f 42f
6:00 10 13 mph 1007.5mb 48f 42f
5:36 9 11 mph 1007.3mb 47f 42f
5:30 8 10 mph 1007.3mb 47f 42f
5:24 9 11 mph 1007.2mb 47f 42f
5:18 9 11 mph 1007.1mb 47f 42f
5:12 8 11 mph 1007mb 47f 42f
5:06 10 13 mph 1006.9mb 47f 42f
5:00 9 13 mph 1006.9mb 47f 42f
4:36 8 11 mph 1006.6mb 47f 42f
4:30 9 11 mph 1006.6mb 47f 42f
4:24 8 10 mph 1006.6mb 47f 42f
4:18 9 11 mph 1006.5mb 47f 42f
4:12 9 11 mph 1006.4mb 47f 42f
4:06 10 11 mph 1006.4mb 47f 42f
4:00 9 11 mph 1006.3mb 47f 42f
3:36 10 13 mph 1006mb 47f 43f
3:30 9 11 mph 1006mb 47f 43f
3:24 10 13 mph 1006mb 47f 43f
3:18 9 13 mph 1006mb 47f 43f
3:12 11 14 mph 1006mb 47f 43f
3:06 11 14 mph 1005.9mb 47f 43f
3:00 11 14 mph 1005.9mb 47f 43f
2:54 11 14 mph 1005.9mb 47f 43f
2:48 11 14 mph 1006mb 47f 43f
2:36 11 14 mph 1006mb 47f 43f
2:30 11 14 mph 1006.1mb 47f 43f
2:24 13 14 mph 1006.1mb 47f 43f
2:18 10 11 mph 1006.1mb 48f 43f
2:12 9 10 mph 1006.1mb 47f 43f
2:06 8 10 mph 1006.2mb 47f 43f
2:00 8 10 mph 1006.1mb 47f 43f
1:54 8 10 mph 1006.2mb 47f 43f
1:48 8 10 mph 1006.2mb 47f 43f
1:36 8 10 mph 1006.2mb 47f 43f
1:30 9 10 mph 1006.2mb 47f 43f
1:24 8 10 mph 1006.2mb 47f 43f
1:18 10 11 mph 1006.2mb 47f 43f
1:12 9 11 mph 1006.1mb 48f 43f
1:06 9 13 mph 1006.1mb 47f 43f
1:00 11 13 mph 1006mb 47f 43f
12:54 10 13 mph 1006mb 48f 43f
12:48 10 13 mph 1005.9mb 48f 44f
12:36 10 11 mph 1005.7mb 47f 44f
12:30 9 11 mph 1005.6mb 47f 44f
12:24 9 10 mph 1005.5mb 47f 44f
12:18 7 9 mph 1005.4mb 47f 44f
12:12 8 9 mph 1005.4mb 47f 44f
12:06 9 10 mph 1005.5mb 47f 44f
12:00 8 9 mph 1005.4mb 48f 44f
Seg 02/20 11:54 8 10 mph 1005.4mb 48f 44f
11:48 9 10 mph 1005.5mb 48f 44f
11:36 9 10 mph 1005.5mb 48f 44f
11:30 8 10 mph 1005.5mb 48f 44f
11:24 9 10 mph 1005.5mb 48f 44f
11:18 9 10 mph 1005.5mb 48f 44f
11:12 8 10 mph 1005.4mb 48f 44f
11:06 6 8 mph 1005.4mb 48f 44f
11:00 6 8 mph 1005.4mb 48f 44f
10:54 7 8 mph 1005.4mb 48f 44f
10:48 7 8 mph 1005.4mb 48f 44f
10:36 7 9 mph 1005.5mb 48f 44f
10:30 7 8 mph 1005.5mb 48f 44f
10:24 6 9 mph 1005.6mb 48f 44f
10:18 8 9 mph 1005.6mb 48f 44f
10:12 8 10 mph 1005.6mb 48f 44f
10:06 8 9 mph 1005.6mb 48f 44f
10:00 7 9 mph 1005.6mb 48f 44f
9:54 7 9 mph 1005.6mb 48f 45f
9:48 7 9 mph 1005.6mb 48f 45f
9:36 7 8 mph 1005.6mb 48f 45f
9:30 7 8 mph 1005.6mb 48f 44f
9:24 7 9 mph 1005.6mb 48f 44f
9:18 7 9 mph 1005.6mb 48f 44f
9:12 7 8 mph 1005.6mb 48f 44f
9:06 7 8 mph 1005.6mb 48f 44f
9:00 6 7 mph 1005.5mb 48f 45f
8:54 6 7 mph 1005.4mb 48f 44f
8:48 6
mph
1005.5mb 48f 44f
8:36 6 7 mph 1005.4mb 48f 44f
8:30 6 8 mph 1005.4mb 48f 44f
8:24 6 8 mph 1005.4mb 48f 45f
8:18 7 8 mph 1005.4mb 48f 44f
8:12 7 8 mph 1005.3mb 48f 44f
8:06 8
mph
1005.3mb 48f 44f
8:00 6 8 mph 1005.3mb 48f 45f
7:54 5 7 mph 1005.3mb 48f 44f
7:48 5 7 mph 1005.2mb 48f 44f
7:36 7 8 mph 1005.3mb 48f 44f
7:30 6 7 mph 1005.4mb 47f 44f
7:24 5 6 mph 1005.4mb 47f 44f
7:18 5 6 mph 1005.4mb 47f 44f
7:12 5
mph
1005.4mb 47f 44f
7:06 3
mph
1005.3mb 47f 44f
7:00 3
mph
1005.3mb 47f 44f
6:54 2
mph
1005.3mb 47f 44f
6:48 2 3 mph 1005.3mb 47f 44f
6:36 5
mph
1005.4mb 47f 44f
6:30 5 6 mph 1005.4mb 47f 44f
6:24 3 6 mph 1005.4mb 47f 44f
6:18 5 6 mph 1005.3mb 47f 44f
6:12 5 6 mph 1005.3mb 47f 45f
6:06 5 6 mph 1005.2mb 47f 44f
6:00 5 6 mph 1005.2mb 47f 45f
5:54 5 6 mph 1005.2mb 47f 45f
5:48 5 7 mph 1005.2mb 47f 45f
5:36 3 5 mph 1005.3mb 47f 45f
5:30 5
mph
1005.3mb 47f 45f
5:24 5 7 mph 1005.3mb 47f 45f
5:18 5 8 mph 1005.3mb 47f 45f
5:12 5 7 mph 1005.3mb 47f 45f
5:06 5 7 mph 1005.2mb 47f 45f
5:00 6 8 mph 1005.2mb 47f 45f
4:54 6 8 mph 1005.2mb 47f 45f
4:48 6 8 mph 1005.2mb 47f 45f
4:36 6 8 mph 1005.2mb 47f 45f
4:30 7 9 mph 1005.2mb 47f 45f
4:24 6 8 mph 1005.2mb 47f 45f
4:18 6 9 mph 1005.1mb 47f 45f
4:12 5 8 mph 1005mb 47f 45f
4:06 6 9 mph 1004.9mb 47f 45f
4:00 6 8 mph 1004.9mb 47f 45f
3:54 6 8 mph 1004.8mb 47f 45f
3:48 7 9 mph 1004.8mb 47f 45f
3:36 7 10 mph 1004.8mb 47f 45f
3:30 7 11 mph 1004.7mb 47f 45f
3:24 8 11 mph 1004.7mb 47f 45f
3:18 8 11 mph 1004.6mb 47f 45f
3:12 7 10 mph 1004.5mb 47f 45f
3:06 6 10 mph 1004.4mb 47f 45f
3:00 8 11 mph 1004.3mb 47f 45f
2:54 8 11 mph 1004.2mb 47f 45f
2:48 7 11 mph 1004.2mb 47f 45f
2:36 9 13 mph 1004.1mb 47f 45f
2:30 10 14 mph 1004.1mb 47f 45f
2:24 9 13 mph 1004mb 47f 46f
2:18 10 13 mph 1003.8mb 47f 45f
2:12 9 13 mph 1003.7mb 47f 45f
2:06 9 11 mph 1003.6mb 47f 45f
2:00 6 10 mph 1003.6mb 47f 46f
1:54 7 9 mph 1003.6mb 47f 46f
1:48 8 10 mph 1003.6mb 47f 45f
1:36 7 9 mph 1003.5mb 47f 45f
1:30 7 10 mph 1003.5mb 47f 45f
1:24 7 10 mph 1003.4mb 47f 45f
1:18 6 8 mph 1003.3mb 47f 45f
1:12 7 9 mph 1003.3mb 47f 45f
1:06 6 7 mph 1003.2mb 47f 45f
1:00 6 7 mph 1003.1mb 47f 45f
12:54 6 7 mph 1003mb 47f 45f
12:48 3 5 mph 1002.9mb 47f 45f
12:36 3 5 mph 1002.8mb 47f 44f
12:30 3 7 mph 1002.7mb 47f 45f
12:24 2 3 mph 1002.6mb 47f 44f
12:18 2 3 mph 1002.4mb 47f 45f
12:12 2 3 mph 1002.4mb 47f 45f
12:06  -  3 mph 1002.4mb 47f 44f
12:00 2 3 mph 1002.3mb 47f 44f
11:54 1 3 mph 1002.2mb 48f 44f
11:48 2 3 mph 1002mb 48f 44f
11:36 1 2 mph 1001.7mb 48f 45f
11:30 2 3 mph 1001.6mb 48f 45f
11:24 1 2 mph 1001.5mb 48f 44f
11:18  -  2 mph 1001.3mb 48f 45f
11:12 1 2 mph 1001.1mb 48f 45f
11:06 1 3 mph 1001mb 48f 44f
11:00 2 3 mph 1000.8mb 48f 44f
10:36 2 5 mph 1000mb 48f 44f
10:30 3 5 mph 999.8mb 48f 44f
10:24 5 6 mph 999.6mb 48f 44f
10:18 3 6 mph 999.5mb 48f 44f
10:12 3 6 mph 999.4mb 48f 44f
10:06 7 8 mph 999.3mb 48f 43f
10:00 5 7 mph 999.2mb 48f 43f
9:54 6 8 mph 999mb 48f 43f
9:48 3 7 mph 998.9mb 48f 43f
9:36 7 8 mph 998.8mb 48f 43f
9:30 6 9 mph 998.7mb 48f 43f
9:24 6 8 mph 998.6mb 48f 43f
9:18 8 10 mph 998.5mb 48f 42f
9:12 9 11 mph 998.4mb 48f 42f
9:06 9 13 mph 998.4mb 48f 42f
9:00 11 14 mph 998.4mb 48f 42f
8:54 10 14 mph 998.3mb 48f 42f
8:48 9 15 mph 998.3mb 48f 42f
8:36 11 15 mph 998.3mb 48f 42f
8:30 13 16 mph 998.2mb 48f 42f
8:24 13 17 mph 998.2mb 48f 42f
8:18 13 17 mph 998.1mb 48f 42f
8:12 15 18 mph 998mb 48f 42f
8:06 14 17 mph 997.9mb 48f 42f
8:00 13 18 mph 997.8mb 48f 42f
7:54 16 18 mph 997.8mb 48f 42f
7:48 14 18 mph 997.8mb 48f 42f
7:36 15 17 mph 997.8mb 48f 42f
7:30 14 17 mph 997.8mb 48f 42f
7:24 14 16 mph 997.7mb 48f 42f
7:18 11 16 mph 997.7mb 48f 42f
7:12 16 20 mph 997.7mb 48f 42f
7:06 14 18 mph 997.7mb 48f 42f
7:00 14 18 mph 997.7mb 48f 42f
6:54 10 17 mph 997.7mb 48f 42f
6:48 14 18 mph 997.7mb 48f 42f
6:36 17 21 mph 997.6mb 48f 42f
6:30 14 18 mph 997.7mb 48f 42f
6:24 15 18 mph 997.7mb 48f 42f
6:18 14 16 mph 997.7mb 48f 42f
6:12 10 14 mph 997.8mb 48f 42f
6:06 9 14 mph 997.9mb 48f 42f
6:00 8 13 mph 998mb 48f 42f
5:54 11 14 mph 998.1mb 48f 42f
5:48 10 13 mph 998.1mb 48f 42f
5:36 11 13 mph 998.2mb 48f 42f
5:30 10 13 mph 998.3mb 48f 42f
5:24 10 13 mph 998.3mb 48f 42f
5:18 9 11 mph 998.3mb 48f 42f
5:12 8 11 mph 998.3mb 48f 42f
5:06 10 11 mph 998.3mb 48f 42f
5:00 9 11 mph 998.4mb 48f 42f
4:54 9 14 mph 998.4mb 48f 42f
4:48 11 15 mph 998.5mb 48f 42f
4:36 14 17 mph 998.5mb 48f 42f
4:30 13 17 mph 998.6mb 48f 42f
4:24 14 17 mph 998.5mb 48f 42f
4:18 13 16 mph 998.6mb 48f 42f
4:12 13 18 mph 998.6mb 48f 42f
4:06 11 15 mph 998.7mb 48f 42f
4:00 9 14 mph 998.8mb 48f 42f
3:54 13 14 mph 998.8mb 48f 42f
3:48 10 15 mph 998.9mb 48f 42f
3:36 7 10 mph 999.2mb 48f 42f
3:30 9 11 mph 999.3mb 47f 42f
3:24 10 13 mph 999.3mb 47f 42f
3:18 9 11 mph 999.4mb 47f 42f
3:12 11 13 mph 999.5mb 47f 42f
3:06 9 13 mph 999.7mb 48f 42f
3:00 10 13 mph 999.8mb 48f 42f
2:54 11 13 mph 999.9mb 48f 42f
2:48 9 11 mph 1000mb 48f 42f
2:36 9 11 mph 1000.2mb 48f 42f
2:30 10 11 mph 1000.3mb 48f 42f
2:24 9 11 mph 1000.3mb 48f 42f
2:18 9 11 mph 1000.5mb 48f 42f
2:12 8 9 mph 1000.6mb 48f 42f
2:06 8 10 mph 1000.7mb 47f 42f
2:00 9 10 mph 1000.7mb 47f 42f
1:54 8 10 mph 1000.7mb 47f 42f
1:48 8 10 mph 1000.7mb 48f 42f
1:36 8
mph
1001mb 48f 42f
1:30 7 9 mph 1001mb 48f 42f
1:24 7 9 mph 1001mb 48f 42f
1:18 7 8 mph 1001mb 48f 42f
1:12 7 9 mph 1001mb 48f 43f
1:06 8 9 mph 1001mb 48f 43f
1:00 6 7 mph 1001.1mb 48f 43f
12:54 6
mph
1001mb 48f 43f
12:48 6 7 mph 1001mb 48f 43f
12:36 7 9 mph 1001.2mb 48f 43f
12:30 6 8 mph 1001.3mb 48f 43f
12:24 7 8 mph 1001.4mb 48f 43f
12:18 5 6 mph 1001.4mb 48f 43f
12:12 3 7 mph 1001.4mb 48f 43f
12:06 6 9 mph 1001.4mb 48f 43f
12:00 5 9 mph 1001.4mb 48f 43f
Dom 02/19 11:54 7 10 mph 1001.5mb 48f 43f
11:48 8 10 mph 1001.6mb 48f 43f
11:36 6 9 mph 1001.7mb 48f 43f
11:30 7 8 mph 1001.7mb 48f 43f
11:24 6 10 mph 1001.8mb 48f 43f
11:18 7 9 mph 1001.8mb 48f 43f
11:12 6 9 mph 1001.8mb 48f 44f
11:06 7 8 mph 1001.7mb 48f 44f
11:00 7 10 mph 1001.7mb 48f 44f
10:54 8 10 mph 1001.7mb 48f 44f
10:48 7 10 mph 1001.7mb 48f 44f
10:36 7 9 mph 1001.6mb 48f 44f
10:30 7 8 mph 1001.7mb 48f 44f
10:24 6 7 mph 1001.6mb 48f 43f
10:18 6 8 mph 1001.6mb 48f 43f
10:12 6 8 mph 1001.6mb 48f 43f
10:06 6 8 mph 1001.6mb 48f 43f
10:00 6 8 mph 1001.6mb 48f 44f
9:54 7 8 mph 1001.6mb 48f 44f
9:48 7 8 mph 1001.5mb 48f 44f
9:36 7 10 mph 1001.4mb 48f 45f
9:30 7 9 mph 1001.4mb 48f 46f
9:24 7 10 mph 1001.4mb 48f 46f
9:18 8 10 mph 1001.3mb 48f 46f
9:12 8 11 mph 1001.3mb 48f 46f
9:06 9 11 mph 1001.1mb 48f 46f
9:00 9 13 mph 1001.1mb 48f 46f
8:54 10 14 mph 1001.1mb 48f 46f
8:48 10 14 mph 1001.1mb 48f 46f
8:36 10 14 mph 1000.9mb 48f 46f
8:30 8 10 mph 1000.9mb 48f 46f
8:24 8 11 mph 1000.8mb 48f 46f
8:18 9 13 mph 1000.8mb 48f 46f
8:12 10 14 mph 1000.7mb 48f 46f
8:06 11 14 mph 1000.6mb 48f 46f
8:00 10 14 mph 1000.5mb 48f 46f
7:54 11 15 mph 1000.5mb 48f 46f
7:48 13 17 mph 1000.4mb 48f 46f
7:36 13 17 mph 1000.4mb 48f 46f
7:30 13 16 mph 1000.4mb 48f 46f
7:24 13 16 mph 1000.4mb 48f 46f
7:18 11 17 mph 1000.3mb 48f 46f
7:12 15 18 mph 1000.2mb 48f 46f
7:06 15 18 mph 1000.1mb 48f 46f
7:00 15 20 mph 1000mb 48f 46f
6:54 14 20 mph 999.9mb 48f 46f
6:48 14 17 mph 999.8mb 48f 46f
6:36 11 17 mph 999.7mb 48f 46f
6:30 15 18 mph 999.6mb 48f 46f
6:24 15 21 mph 999.6mb 48f 46f
6:18 14 20 mph 999.5mb 48f 46f
6:12 15 20 mph 999.4mb 48f 46f
6:06 14 18 mph 999.3mb 48f 46f
6:00 15 20 mph 999.2mb 48f 46f
5:54 15 20 mph 999.1mb 48f 46f
5:48 13 20 mph 999.1mb 48f 46f
5:36 18 22 mph 998.9mb 48f 46f
5:30 17 22 mph 998.8mb 48f 46f
5:24 17 22 mph 998.7mb 48f 46f
5:18 18 23 mph 998.6mb 48f 46f
5:12 18 23 mph 998.5mb 48f 47f
5:06 16 23 mph 998.4mb 48f 47f
5:00 17 23 mph 998.3mb 48f 46f
4:54 17 22 mph 998.1mb 48f 46f
4:48 18 24 mph 998.1mb 48f 46f
4:36 15 22 mph 997.9mb 47f 45f
4:30 16 22 mph 997.9mb 47f 45f
4:24 13 21 mph 997.8mb 47f 45f
4:18 17 23 mph 997.7mb 47f 45f
4:12 17 23 mph 997.6mb 47f 45f
4:06 15 24 mph 997.5mb 47f 45f
4:00 14 20 mph 997.4mb 47f 45f
3:36 13 18 mph 997mb 48f 45f
3:30 13 20 mph 997mb 48f 45f
3:24 11 18 mph 996.9mb 47f 45f
3:18 13 20 mph 996.9mb 47f 45f
3:12 15 21 mph 996.9mb 47f 44f
3:06 13 18 mph 996.9mb 47f 44f
3:00 11 22 mph 996.9mb 47f 44f
2:54 16 21 mph 996.9mb 47f 43f
2:48 14 22 mph 996.8mb 47f 43f
2:36 9 14 mph 996.4mb 47f 43f
2:30 10 15 mph 996.3mb 47f 42f
2:24 11 16 mph 996.3mb 48f 42f
2:18 9 18 mph 996.3mb 48f 42f
2:12 14 20 mph 996.4mb 48f 42f
2:06 11 18 mph 996.4mb 48f 42f
2:00 11 16 mph 996.4mb 48f 42f
1:54 13 18 mph 996.4mb 48f 42f
1:48 13 18 mph 996.4mb 48f 42f
1:36 13 17 mph 996.4mb 48f 42f
1:30 13 21 mph 996.4mb 48f 42f
1:24 10 15 mph 996.4mb 48f 42f
1:18 8 14 mph 996.5mb 48f 42f
1:12 13 24 mph 996.4mb 48f 43f
1:06 14 25 mph 996.3mb 48f 43f
1:00 16 25 mph 996.2mb 48f 43f
12:54 10 21 mph 996.1mb 48f 43f
12:48 10 15 mph 996mb 48f 43f
12:36 14 21 mph 995.9mb 48f 43f
12:30 11 17 mph 996mb 48f 42f
12:24 11 18 mph 996mb 48f 42f
12:18 14 20 mph 995.8mb 48f 42f
12:12 15 22 mph 995.7mb 48f 42f